Time;durP1;ratioP1;P1;durP2;ratioP2;P2;SDS_P1;SDS_P2;PMS_P1;PMS_P2;Temp;Humidity;BMP_temperature;BMP_pressure;BME280_temperature;BME280_humidity;BME280_pressure;Samples;Min_cycle;Max_cycle;Signal;HPM_P1;HPM_P2
2022/07/07 00:00:13;;;;;;;6.78;4.12;;;;;;;14.47;71.48;100498.94;1757429;80;32886;-70
2022/07/07 00:02:41;;;;;;;4.80;4.28;;;;;;;14.47;71.69;100490.23;1751857;80;25717;-70
2022/07/07 00:05:08;;;;;;;7.83;4.67;;;;;;;14.47;71.50;100489.42;1756180;80;26238;-70
2022/07/07 00:07:34;;;;;;;5.03;3.90;;;;;;;14.44;71.17;100486.81;1758380;80;25722;-70
2022/07/07 00:10:00;;;;;;;7.28;4.05;;;;;;;14.43;71.11;100487.92;1768732;79;28310;-70
2022/07/07 00:12:26;;;;;;;5.30;3.62;;;;;;;14.41;70.80;100491.55;1763447;81;25529;-69
2022/07/07 00:14:52;;;;;;;6.12;3.35;;;;;;;14.38;71.05;100487.55;1794914;80;29670;-69
2022/07/07 00:17:18;;;;;;;6.47;3.85;;;;;;;14.34;71.23;100487.98;1794914;79;26394;-69
2022/07/07 00:19:44;;;;;;;5.95;3.85;;;;;;;14.32;71.12;100486.16;1773213;80;25394;-69
2022/07/07 00:22:10;;;;;;;6.85;4.15;;;;;;;14.29;71.19;100486.81;1773163;80;27512;-69
2022/07/07 00:24:36;;;;;;;6.87;4.15;;;;;;;14.27;71.26;100487.71;1794802;80;32871;-69
2022/07/07 00:27:03;;;;;;;10.23;5.10;;;;;;;14.27;71.46;100484.17;1795001;80;30262;-69
2022/07/07 00:29:29;;;;;;;5.60;4.15;;;;;;;14.25;71.30;100484.53;1795025;79;26314;-69
2022/07/07 00:31:55;;;;;;;8.15;4.87;;;;;;;14.25;71.44;100486.43;1794967;80;25602;-70
2022/07/07 00:34:22;;;;;;;7.67;3.85;;;;;;;14.23;71.72;100486.75;1794963;79;26982;-70
2022/07/07 00:36:49;;;;;;;7.53;4.50;;;;;;;14.23;71.72;100488.69;1794972;79;25713;-70
2022/07/07 00:39:15;;;;;;;7.78;3.95;;;;;;;14.22;71.82;100489.26;1795042;79;25464;-70
2022/07/07 00:41:41;;;;;;;5.92;3.83;;;;;;;14.21;71.86;100489.02;1794953;80;25613;-70
2022/07/07 00:44:13;;;;;;;4.87;3.62;;;;;;;14.19;71.90;100483.90;1795007;79;25631;-70
2022/07/07 00:46:46;;;;;;;11.10;3.90;;;;;;;14.19;72.05;100485.83;1771425;80;27589;-69
2022/07/07 00:49:13;;;;;;;6.55;4.20;;;;;;;14.19;72.22;100488.55;1794799;80;25714;-69
2022/07/07 00:51:41;;;;;;;7.80;4.03;;;;;;;14.18;72.11;100483.69;1790639;80;25410;-70
2022/07/07 00:54:09;;;;;;;7.17;4.20;;;;;;;14.18;72.33;100493.20;1794942;79;25480;-70
2022/07/07 00:56:35;;;;;;;8.23;3.60;;;;;;;14.17;72.49;100491.59;1771455;80;25689;-70
2022/07/07 00:59:03;;;;;;;6.83;4.40;;;;;;;14.18;72.29;100491.02;1794970;80;27445;-69
2022/07/07 01:01:30;;;;;;;7.83;4.33;;;;;;;14.18;72.36;100491.84;1790617;79;25885;-70
2022/07/07 01:03:58;;;;;;;6.40;3.87;;;;;;;14.19;72.58;100485.83;1769671;80;25565;-69
2022/07/07 01:06:25;;;;;;;7.15;3.80;;;;;;;14.20;72.65;100484.14;1766025;80;25548;-70
2022/07/07 01:08:52;;;;;;;7.87;4.25;;;;;;;14.20;72.61;100482.78;1794955;79;25390;-69
2022/07/07 01:11:19;;;;;;;11.90;4.17;;;;;;;14.23;72.51;100480.53;1797163;78;27501;-69
2022/07/07 01:13:45;;;;;;;6.47;3.72;;;;;;;14.24;72.55;100485.64;1797569;78;25459;-70
2022/07/07 01:16:11;;;;;;;6.95;3.60;;;;;;;14.23;72.56;100488.12;1797976;79;29667;-69
2022/07/07 01:18:37;;;;;;;7.45;4.20;;;;;;;14.23;72.61;100481.89;1798025;79;25551;-70
2022/07/07 01:21:06;;;;;;;6.20;3.80;;;;;;;14.23;72.68;100484.03;1797568;79;25446;-70
2022/07/07 01:23:32;;;;;;;8.57;4.40;;;;;;;14.23;72.72;100485.40;1797229;79;27511;-70
2022/07/07 01:25:58;;;;;;;9.30;3.98;;;;;;;14.24;72.69;100487.00;1797851;79;27059;-70
2022/07/07 01:28:24;;;;;;;6.17;3.85;;;;;;;14.24;72.74;100484.85;1798042;79;25645;-70
2022/07/07 01:30:50;;;;;;;5.05;3.50;;;;;;;14.25;72.70;100481.81;1773642;80;26236;-70
2022/07/07 01:33:16;;;;;;;5.95;3.92;;;;;;;14.27;72.87;100492.34;1797340;79;25787;-70
2022/07/07 01:35:43;;;;;;;9.50;3.65;;;;;;;14.28;72.82;100495.30;1798023;79;27518;-70
2022/07/07 01:38:08;;;;;;;5.28;3.30;;;;;;;14.30;72.85;100493.04;1797952;79;25528;-70
2022/07/07 01:40:34;;;;;;;6.50;3.98;;;;;;;14.29;72.83;100489.53;1797314;78;29559;-70
2022/07/07 01:43:01;;;;;;;9.15;4.00;;;;;;;14.31;72.77;100496.01;1797010;79;25606;-70
2022/07/07 01:45:27;;;;;;;8.65;3.42;;;;;;;14.30;72.64;100495.22;1797949;79;25604;-71
2022/07/07 01:47:53;;;;;;;6.33;3.92;;;;;;;14.31;72.66;100494.65;1798024;79;27468;-70
2022/07/07 01:50:20;;;;;;;7.00;3.67;;;;;;;14.31;72.60;100494.08;1771504;80;31154;-70
2022/07/07 01:52:46;;;;;;;6.22;3.67;;;;;;;14.30;72.72;100491.69;1796862;79;25562;-70
2022/07/07 01:55:12;;;;;;;5.70;3.25;;;;;;;14.29;72.55;100489.53;1797498;79;25539;-70
2022/07/07 01:57:42;;;;;;;6.70;3.98;;;;;;;14.30;72.58;100489.78;1766478;81;25550;-69
2022/07/07 02:00:11;;;;;;;7.42;3.67;;;;;;;14.29;72.71;100486.81;1782184;79;27439;-69
2022/07/07 02:02:37;;;;;;;5.17;3.42;;;;;;;14.31;72.78;100490.00;1797882;79;25626;-70
2022/07/07 02:05:07;;;;;;;6.92;3.10;;;;;;;14.32;72.67;100489.42;1773708;80;25747;-69
2022/07/07 02:07:36;;;;;;;7.45;3.17;;;;;;;14.32;72.61;100492.97;1798086;79;26107;-68
2022/07/07 02:10:05;;;;;;;10.00;3.67;;;;;;;14.32;72.80;100494.33;1768986;80;28268;-69
2022/07/07 02:12:31;;;;;;;4.77;2.80;;;;;;;14.33;72.83;100493.75;1776451;80;27477;-69
2022/07/07 02:14:58;;;;;;;5.40;3.10;;;;;;;14.33;72.83;100491.03;1774742;80;27354;-69
2022/07/07 02:17:24;;;;;;;4.12;2.70;;;;;;;14.32;72.74;100489.42;1775599;80;25589;-70
2022/07/07 02:19:51;;;;;;;4.62;2.80;;;;;;;14.34;72.65;100486.62;1775361;80;25816;-72
2022/07/07 02:22:17;;;;;;;5.92;3.15;;;;;;;14.35;72.53;100488.77;1774808;80;25823;-71
2022/07/07 02:24:43;;;;;;;7.05;3.20;;;;;;;14.34;72.56;100487.20;1775568;80;27560;-69
2022/07/07 02:27:09;;;;;;;6.62;3.15;;;;;;;14.33;72.51;100486.38;1775416;80;32783;-68
2022/07/07 02:29:35;;;;;;;5.87;2.83;;;;;;;14.34;72.62;100488.55;1777360;80;25718;-66
2022/07/07 02:32:01;;;;;;;8.93;3.65;;;;;;;14.36;72.64;100490.38;1773967;80;25722;-68
2022/07/07 02:34:28;;;;;;;9.28;3.02;;;;;;;14.38;72.70;100493.56;1764285;80;26319;-68
2022/07/07 02:36:55;;;;;;;4.85;2.75;;;;;;;14.41;72.76;100496.98;1770475;80;27517;-67
2022/07/07 02:39:21;;;;;;;6.78;3.00;;;;;;;14.42;72.66;100490.97;1774004;80;25915;-67
2022/07/07 02:41:48;;;;;;;5.72;2.77;;;;;;;14.41;72.51;100488.83;1774524;80;25426;-67
2022/07/07 02:44:14;;;;;;;5.58;2.70;;;;;;;14.43;72.43;100490.64;1775209;80;25571;-68
2022/07/07 02:46:40;;;;;;;4.45;2.87;;;;;;;14.44;72.46;100490.89;1774380;80;25600;-68
2022/07/07 02:49:06;;;;;;;6.20;2.77;;;;;;;14.45;72.58;100495.19;1774246;80;27537;-71
2022/07/07 02:51:32;;;;;;;4.35;2.30;;;;;;;14.45;72.49;100494.40;1775366;80;33049;-72
2022/07/07 02:53:59;;;;;;;4.53;2.65;;;;;;;14.46;72.44;100491.35;1777730;80;25620;-70
2022/07/07 02:56:25;;;;;;;6.95;3.35;;;;;;;14.46;72.40;100492.72;1775737;80;26315;-71
2022/07/07 02:58:51;;;;;;;7.28;2.85;;;;;;;14.45;72.38;100495.19;1775441;80;25551;-70
2022/07/07 03:01:17;;;;;;;6.65;2.62;;;;;;;14.45;72.42;100493.83;1777671;80;28390;-70
2022/07/07 03:03:44;;;;;;;4.50;2.47;;;;;;;14.45;72.47;100489.75;1777606;80;25763;-70
2022/07/07 03:06:10;;;;;;;5.42;2.85;;;;;;;14.45;72.48;100493.04;1777701;80;25591;-71
2022/07/07 03:08:37;;;;;;;4.85;2.87;;;;;;;14.45;72.43;100495.19;1777691;80;26034;-71
2022/07/07 03:11:03;;;;;;;5.90;2.70;;;;;;;14.46;72.43;100491.92;1780909;80;25819;-71
2022/07/07 03:13:29;;;;;;;6.62;3.02;;;;;;;14.46;72.50;100489.99;1786796;80;27468;-71
2022/07/07 03:15:55;;;;;;;8.75;3.20;;;;;;;14.47;72.55;100491.59;1786771;80;25543;-71
2022/07/07 03:18:22;;;;;;;5.97;3.17;;;;;;;14.47;72.52;100493.50;1786834;79;25426;-71
2022/07/07 03:20:48;;;;;;;6.75;3.58;;;;;;;14.47;72.72;100497.59;1786784;80;25535;-71
2022/07/07 03:23:14;;;;;;;5.40;2.62;;;;;;;14.48;72.66;100494.53;1786871;80;25386;-72
2022/07/07 03:25:41;;;;;;;7.60;3.50;;;;;;;14.49;72.71;100493.42;1786853;80;27453;-71
2022/07/07 03:28:07;;;;;;;7.53;3.85;;;;;;;14.52;72.81;100491.41;1786756;80;25730;-71
2022/07/07 03:30:33;;;;;;;5.03;2.92;;;;;;;14.54;72.92;100492.41;1786776;80;25539;-72
2022/07/07 03:32:59;;;;;;;5.45;2.83;;;;;;;14.56;73.02;100492.33;1786792;80;26263;-71
2022/07/07 03:35:25;;;;;;;5.95;3.20;;;;;;;14.57;73.11;100495.29;1786834;79;25614;-71
2022/07/07 03:37:51;;;;;;;3.70;2.55;;;;;;;14.59;73.10;100486.02;1786822;80;27997;-71
2022/07/07 03:40:17;;;;;;;5.25;2.92;;;;;;;14.63;73.30;100492.41;1786677;80;33218;-71
2022/07/07 03:42:44;;;;;;;6.45;3.20;;;;;;;14.65;73.14;100495.59;1786829;79;25469;-71
2022/07/07 03:45:10;;;;;;;5.35;2.80;;;;;;;14.67;73.04;100494.11;1786744;80;25484;-71
2022/07/07 03:47:36;;;;;;;6.58;3.05;;;;;;;14.69;73.00;100493.78;1786746;80;25575;-71
2022/07/07 03:50:04;;;;;;;7.60;3.10;;;;;;;14.70;73.13;100494.81;1786799;80;27502;-71
2022/07/07 03:52:30;;;;;;;7.25;3.02;;;;;;;14.71;73.08;100496.97;1786660;80;25451;-71
2022/07/07 03:54:56;;;;;;;6.58;3.02;;;;;;;14.74;73.22;100494.95;1786800;80;25525;-71
2022/07/07 03:57:22;;;;;;;10.28;2.85;;;;;;;14.76;73.18;100498.13;1786750;80;25998;-71
2022/07/07 03:59:49;;;;;;;6.75;2.85;;;;;;;14.79;73.21;100500.19;1786836;80;25454;-71
2022/07/07 04:02:15;;;;;;;9.70;3.55;;;;;;;14.82;73.27;100491.94;1786772;80;28261;-71
2022/07/07 04:04:41;;;;;;;5.12;2.83;;;;;;;14.86;73.49;100496.36;1786751;80;25375;-71
2022/07/07 04:07:07;;;;;;;7.92;3.35;;;;;;;14.87;73.03;100497.18;1786779;80;25585;-72
2022/07/07 04:09:33;;;;;;;7.85;3.27;;;;;;;14.90;73.41;100493.80;1786751;80;25479;-72
2022/07/07 04:11:59;;;;;;;6.10;3.00;;;;;;;14.96;73.56;100492.45;1784715;80;25607;-71
2022/07/07 04:14:25;;;;;;;7.60;3.05;;;;;;;15.02;73.49;100493.84;1752023;80;26840;-71
2022/07/07 04:16:51;;;;;;;7.47;3.65;;;;;;;15.07;73.60;100490.12;1783375;80;25391;-71
2022/07/07 04:19:17;;;;;;;9.88;3.30;;;;;;;15.13;73.29;100488.77;1783417;80;30184;-71
2022/07/07 04:21:43;;;;;;;9.25;2.83;;;;;;;15.14;72.85;100489.02;1783459;80;25570;-71
2022/07/07 04:24:09;;;;;;;8.15;3.10;;;;;;;15.19;72.67;100488.81;1783446;80;25568;-71
2022/07/07 04:26:36;;;;;;;9.60;2.90;;;;;;;15.25;72.81;100484.72;1783486;79;27466;-71
2022/07/07 04:29:02;;;;;;;7.53;3.17;;;;;;;15.32;72.73;100480.09;1783334;80;25461;-72
2022/07/07 04:31:28;;;;;;;31.27;16.25;;;;;;;15.39;72.97;100480.36;1783378;80;25615;-72
2022/07/07 04:33:54;;;;;;;38.25;23.20;;;;;;;15.46;72.71;100483.88;1783429;80;25483;-71
2022/07/07 04:36:21;;;;;;;10.98;5.30;;;;;;;15.52;72.30;100485.27;1783483;80;25576;-71
2022/07/07 04:38:47;;;;;;;10.72;3.08;;;;;;;15.59;71.93;100484.13;1783457;80;27974;-71
2022/07/07 04:41:13;;;;;;;9.23;2.55;;;;;;;15.64;71.64;100482.55;1783332;80;25384;-65
2022/07/07 04:43:39;;;;;;;5.30;2.20;;;;;;;15.73;71.21;100483.81;1783241;80;25620;-70
2022/07/07 04:46:05;;;;;;;7.90;2.20;;;;;;;15.79;70.86;100482.49;1783449;80;25566;-69
2022/07/07 04:48:32;;;;;;;5.12;2.00;;;;;;;15.86;70.77;100479.99;1783452;80;25693;-69
2022/07/07 04:50:58;;;;;;;5.10;1.70;;;;;;;15.96;70.37;100487.52;1783415;80;27462;-69
2022/07/07 04:53:25;;;;;;;9.33;2.58;;;;;;;16.05;70.28;100477.27;1783301;80;25414;-69
2022/07/07 04:55:51;;;;;;;8.95;3.40;;;;;;;16.13;69.66;100483.19;1783420;80;25540;-69
2022/07/07 04:58:17;;;;;;;7.28;2.08;;;;;;;16.22;69.90;100485.80;1783375;80;25557;-70
2022/07/07 05:00:43;;;;;;;4.80;1.87;;;;;;;16.34;69.34;100486.35;1783423;80;25604;-75
2022/07/07 05:03:09;;;;;;;7.08;1.90;;;;;;;16.42;69.21;100490.32;1783412;80;28233;-75
2022/07/07 05:05:35;;;;;;;9.60;2.27;;;;;;;16.52;68.50;100483.59;1783269;80;25427;-75
2022/07/07 05:08:01;;;;;;;6.97;2.20;;;;;;;16.59;68.48;100483.80;1783285;80;25529;-75
2022/07/07 05:10:27;;;;;;;5.95;1.70;;;;;;;16.73;68.41;100488.88;1783323;80;26168;-75
2022/07/07 05:12:53;;;;;;;7.08;2.08;;;;;;;16.83;67.87;100484.09;1783357;80;25608;-75
2022/07/07 05:15:19;;;;;;;8.35;1.77;;;;;;;16.92;67.70;100484.77;1783502;80;27484;-75
2022/07/07 05:17:45;;;;;;;5.95;1.62;;;;;;;17.03;67.47;100487.81;1783505;80;25528;-74
2022/07/07 05:20:12;;;;;;;5.72;2.10;;;;;;;17.13;66.96;100481.85;1783604;80;25628;-75
2022/07/07 05:22:38;;;;;;;3.05;1.67;;;;;;;17.24;66.65;100482.13;1783538;80;25555;-72
2022/07/07 05:25:05;;;;;;;4.85;1.82;;;;;;;17.33;66.47;100486.30;1782479;80;25612;-73
2022/07/07 05:27:31;;;;;;;9.75;2.30;;;;;;;17.46;66.29;100482.91;1782587;80;27519;-73
2022/07/07 05:29:57;;;;;;;3.12;1.55;;;;;;;17.57;65.89;100485.95;1783114;80;25869;-73
2022/07/07 05:32:23;;;;;;;9.98;1.35;;;;;;;17.68;65.16;100480.16;1783018;80;25655;-73
2022/07/07 05:34:49;;;;;;;3.20;1.20;;;;;;;17.80;64.98;100483.38;1783311;80;26088;-72
2022/07/07 05:37:15;;;;;;;8.70;1.57;;;;;;;17.89;64.27;100487.33;1783258;80;25579;-73
2022/07/07 05:39:41;;;;;;;6.45;1.57;;;;;;;17.97;63.47;100482.84;1783050;80;27527;-72
2022/07/07 05:42:07;;;;;;;18.98;8.05;;;;;;;18.03;63.38;100482.22;1783127;80;25679;-73
2022/07/07 05:44:33;;;;;;;8.28;4.53;;;;;;;18.13;63.57;100480.86;1783272;80;25532;-71
2022/07/07 05:46:59;;;;;;;5.80;1.22;;;;;;;18.25;62.92;100478.59;1782919;80;26170;-72
2022/07/07 05:49:25;;;;;;;3.55;1.32;;;;;;;18.34;61.87;100478.39;1783352;80;25400;-72
2022/07/07 05:51:52;;;;;;;5.00;1.10;;;;;;;18.39;61.28;100483.59;1783193;80;27550;-72
2022/07/07 05:54:18;;;;;;;4.15;1.00;;;;;;;18.43;60.77;100479.78;1782929;80;25434;-72
2022/07/07 05:56:44;;;;;;;5.83;1.50;;;;;;;18.52;61.01;100480.95;1783265;80;25712;-72
2022/07/07 05:59:10;;;;;;;5.87;1.25;;;;;;;18.60;60.50;100488.17;1783179;80;25695;-72
2022/07/07 06:01:36;;;;;;;3.95;1.20;;;;;;;18.67;60.27;100486.95;1783202;80;25429;-71
2022/07/07 06:04:03;;;;;;;6.05;1.42;;;;;;;18.80;60.13;100484.09;1783188;80;28086;-71
2022/07/07 06:06:29;;;;;;;3.58;1.27;;;;;;;18.91;60.34;100487.86;1783232;80;25902;-71
2022/07/07 06:08:55;;;;;;;11.60;1.20;;;;;;;19.06;59.92;100488.94;1783166;80;25684;-72
2022/07/07 06:11:21;;;;;;;5.80;1.10;;;;;;;19.19;59.57;100489.01;1782946;80;25611;-72
2022/07/07 06:13:47;;;;;;;5.80;0.90;;;;;;;19.33;59.35;100488.48;1783260;80;25505;-73
2022/07/07 06:16:13;;;;;;;7.05;1.87;;;;;;;19.48;58.70;100488.17;1783243;80;28133;-72
2022/07/07 06:18:39;;;;;;;8.58;1.35;;;;;;;19.62;58.38;100486.25;1782992;80;25674;-71
2022/07/07 06:21:05;;;;;;;3.35;1.07;;;;;;;19.75;58.16;100493.17;1783216;80;25623;-72
2022/07/07 06:23:31;;;;;;;2.58;1.32;;;;;;;19.84;56.76;100483.91;1783264;80;26087;-74
2022/07/07 06:26:02;;;;;;;8.65;1.87;;;;;;;19.85;56.43;100490.95;1783045;80;25649;-71
2022/07/07 06:28:26;;;;;;;3.80;1.50;;;;;;;19.92;56.64;100489.13;1782644;80;28224;-73
2022/07/07 06:30:52;;;;;;;11.38;4.92;;;;;;;20.04;56.10;100486.77;1783198;80;25539;-72
2022/07/07 06:33:18;;;;;;;5.75;2.67;;;;;;;20.08;55.73;100487.61;1781257;80;25725;-72
2022/07/07 06:35:44;;;;;;;5.85;2.27;;;;;;;20.13;55.33;100485.14;1778918;80;25925;-73
2022/07/07 06:38:10;;;;;;;4.12;1.80;;;;;;;20.21;55.79;100484.65;1778899;80;25776;-72
2022/07/07 06:40:36;;;;;;;4.00;1.65;;;;;;;20.34;55.18;100492.30;1780136;80;27505;-72
2022/07/07 06:43:02;;;;;;;5.72;1.62;;;;;;;20.45;54.67;100486.97;1778842;80;25433;-72
2022/07/07 06:45:29;;;;;;;6.75;1.90;;;;;;;20.55;54.10;100489.66;1783170;80;25614;-72
2022/07/07 06:47:55;;;;;;;6.03;2.27;;;;;;;20.58;53.53;100486.73;1781470;80;25575;-73
2022/07/07 06:50:21;;;;;;;5.25;1.80;;;;;;;20.68;53.47;100477.87;1778840;80;25631;-73
2022/07/07 06:52:47;;;;;;;5.62;1.35;;;;;;;20.86;53.86;100478.89;1783284;80;27419;-73
2022/07/07 06:55:13;;;;;;;5.08;1.75;;;;;;;21.17;54.08;100478.25;1782773;80;25737;-72
2022/07/07 06:57:39;;;;;;;5.62;1.40;;;;;;;21.44;53.00;100480.89;1783178;80;25739;-72
2022/07/07 07:00:10;;;;;;;6.00;1.75;;;;;;;21.58;52.88;100478.88;1782984;80;25774;-72
2022/07/07 07:02:43;;;;;;;2.12;1.42;;;;;;;21.85;52.41;100483.63;1783026;80;25686;-67
2022/07/07 07:05:10;;;;;;;1.60;1.00;;;;;;;22.05;52.19;100470.97;1781638;80;28507;-68
2022/07/07 07:07:36;;;;;;;4.28;1.30;;;;;;;22.20;51.24;100478.97;1778442;80;25779;-68
2022/07/07 07:10:03;;;;;;;3.42;1.00;;;;;;;22.23;50.56;100480.15;1779604;80;25708;-70
2022/07/07 07:12:29;;;;;;;2.90;1.10;;;;;;;22.16;48.95;100478.73;1779758;80;25909;-69
2022/07/07 07:14:55;;;;;;;2.58;1.12;;;;;;;21.99;48.57;100475.47;1781714;80;25548;-69
2022/07/07 07:17:22;;;;;;;5.75;2.30;;;;;;;21.87;49.03;100470.86;1778582;80;27473;-70
2022/07/07 07:19:48;;;;;;;7.47;1.98;;;;;;;21.90;49.71;100468.73;1782311;79;25667;-70
2022/07/07 07:22:15;;;;;;;3.47;1.20;;;;;;;21.92;49.54;100471.88;1781426;79;25805;-70
2022/07/07 07:24:41;;;;;;;2.37;1.20;;;;;;;21.95;49.41;100466.99;1780056;80;25488;-72
2022/07/07 07:27:07;;;;;;;2.70;1.00;;;;;;;21.96;49.32;100468.55;1784525;80;25657;-69
2022/07/07 07:29:33;;;;;;;3.80;1.70;;;;;;;22.07;49.40;100457.63;1782766;80;28350;-69
2022/07/07 07:31:59;;;;;;;4.83;1.40;;;;;;;22.21;49.13;100460.47;1784264;80;25700;-69
2022/07/07 07:34:25;;;;;;;3.92;1.47;;;;;;;22.34;49.06;100459.00;1786643;79;25713;-70
2022/07/07 07:36:51;;;;;;;5.08;1.20;;;;;;;22.49;48.69;100454.36;1786311;80;26400;-71
2022/07/07 07:39:17;;;;;;;1.42;1.27;;;;;;;22.61;47.76;100460.13;1785210;80;25781;-70
2022/07/07 07:41:46;;;;;;;1.67;1.30;;;;;;;22.62;47.89;100451.27;1786583;80;27612;-69
2022/07/07 07:44:12;;;;;;;3.27;1.65;;;;;;;22.77;47.58;100456.25;1783303;80;25639;-71
2022/07/07 07:46:38;;;;;;;3.35;1.90;;;;;;;22.77;46.75;100454.27;1785815;80;25393;-72
2022/07/07 07:49:05;;;;;;;4.55;1.65;;;;;;;22.75;47.16;100447.77;1785866;79;26260;-72
2022/07/07 07:51:33;;;;;;;2.50;1.45;;;;;;;22.88;46.46;100452.92;1786489;80;25560;-72
2022/07/07 07:54:00;;;;;;;2.63;1.30;;;;;;;22.79;45.47;100453.89;1785582;80;27651;-72
2022/07/07 07:56:26;;;;;;;4.87;1.60;;;;;;;22.67;45.99;100455.02;1786367;80;25381;-72
2022/07/07 07:58:52;;;;;;;4.17;1.40;;;;;;;22.86;45.97;100448.39;1786472;80;25407;-72
2022/07/07 08:01:18;;;;;;;6.85;1.10;;;;;;;23.00;46.47;100450.40;1786231;80;26149;-72
2022/07/07 08:03:44;;;;;;;3.02;1.20;;;;;;;23.12;45.57;100448.67;1786541;80;25668;-72
2022/07/07 08:06:10;;;;;;;7.65;1.37;;;;;;;23.21;45.55;100457.38;1786357;80;27741;-72
2022/07/07 08:08:36;;;;;;;3.12;1.07;;;;;;;23.19;43.67;100454.23;1786156;80;25650;-73
2022/07/07 08:11:02;;;;;;;4.75;1.20;;;;;;;22.97;44.61;100456.12;1786456;80;25370;-72
2022/07/07 08:13:28;;;;;;;6.08;1.20;;;;;;;22.89;44.75;100454.52;1786501;79;25799;-72
2022/07/07 08:15:54;;;;;;;1.87;1.05;;;;;;;22.87;44.67;100454.90;1786283;80;25547;-73
2022/07/07 08:18:20;;;;;;;3.10;1.07;;;;;;;22.86;44.65;100464.34;1786421;80;28167;-72
2022/07/07 08:20:46;;;;;;;4.75;0.80;;;;;;;22.82;44.98;100466.91;1786422;80;25579;-72
2022/07/07 08:23:13;;;;;;;2.47;0.65;;;;;;;22.76;44.47;100465.09;1786266;80;25634;-72
2022/07/07 08:25:39;;;;;;;4.40;0.98;;;;;;;22.59;43.70;100458.92;1786562;80;25742;-72
2022/07/07 08:28:05;;;;;;;0.88;0.60;;;;;;;22.46;43.92;100466.72;1786437;80;25561;-72
2022/07/07 08:30:31;;;;;;;3.33;1.00;;;;;;;22.18;43.40;100465.36;1786263;80;28091;-72
2022/07/07 08:32:57;;;;;;;3.02;0.70;;;;;;;21.97;43.88;100477.81;1786355;80;25671;-72
2022/07/07 08:35:25;;;;;;;4.08;1.70;;;;;;;21.85;44.72;100468.48;1786523;80;25540;-72
2022/07/07 08:37:51;;;;;;;2.05;0.90;;;;;;;21.93;45.40;100470.69;1786175;80;25514;-74
2022/07/07 08:40:17;;;;;;;3.85;1.30;;;;;;;22.00;45.02;100474.89;1786561;79;25626;-68
2022/07/07 08:42:44;;;;;;;3.37;0.90;;;;;;;21.96;45.29;100472.13;1786549;80;27451;-69
2022/07/07 08:45:11;;;;;;;5.60;1.10;;;;;;;21.92;45.12;100469.91;1786035;80;25678;-69
2022/07/07 08:47:38;;;;;;;3.15;0.88;;;;;;;21.96;46.12;100467.98;1786376;80;25492;-68
2022/07/07 08:50:06;;;;;;;2.87;1.00;;;;;;;22.18;46.37;100465.36;1786580;79;25527;-68
2022/07/07 08:52:32;;;;;;;2.83;0.80;;;;;;;22.45;46.19;100459.05;1786289;79;25576;-68
2022/07/07 08:55:04;;;;;;;2.87;1.35;;;;;;;22.62;45.48;100461.69;1760142;80;27690;-68
2022/07/07 08:57:30;;;;;;;2.27;0.80;;;;;;;22.72;45.21;100465.08;1786591;79;25819;-68
2022/07/07 08:59:59;;;;;;;2.62;0.85;;;;;;;22.94;44.64;100463.19;1786418;80;25520;-70
2022/07/07 09:02:25;;;;;;;5.12;0.80;;;;;;;23.09;44.58;100461.30;1784300;79;26155;-68
2022/07/07 09:04:52;;;;;;;3.98;0.85;;;;;;;23.52;43.73;100463.33;1786526;79;25614;-69
2022/07/07 09:07:19;;;;;;;3.55;0.90;;;;;;;23.58;42.98;100463.72;1786687;80;27393;-68
2022/07/07 09:09:55;;;;;;;1.80;1.02;;;;;;;23.44;42.99;100455.62;1785473;80;25646;-69
2022/07/07 09:12:21;;;;;;;4.83;1.10;;;;;;;23.53;42.55;100458.59;1758890;79;25868;-69
2022/07/07 09:14:52;;;;;;;4.67;0.80;;;;;;;23.37;42.60;100464.50;1769267;81;25728;-68
2022/07/07 09:17:31;;;;;;;1.37;0.80;;;;;;;23.43;43.25;100461.56;1769912;81;25443;-69
2022/07/07 09:20:10;;;;;;;;;;;;;;;23.90;44.25;100461.58;1772787;81;28140;-67
2022/07/07 09:22:52;;;;;;;3.80;0.60;;;;;;;24.08;41.94;100461.57;1768482;81;25800;-70
2022/07/07 09:25:25;;;;;;;6.83;0.90;;;;;;;24.15;42.11;100462.94;1769871;81;25469;-67
2022/07/07 09:28:04;;;;;;;2.70;0.80;;;;;;;24.05;41.03;100457.62;1770138;80;25642;-68
2022/07/07 09:30:40;;;;;;;0.93;0.75;;;;;;;23.80;40.43;100460.37;1770243;80;25662;-69
2022/07/07 09:33:11;;;;;;;0.80;0.60;;;;;;;23.59;41.24;100458.41;1769896;81;27458;-66
2022/07/07 09:38:29;;;;;;;3.12;0.62;;;;;;;24.15;41.09;100467.08;1770321;81;25683;-68
2022/07/07 09:41:03;;;;;;;2.72;1.05;;;;;;;24.31;41.20;100452.81;1769772;81;26173;-67
2022/07/07 09:43:37;;;;;;;2.30;0.70;;;;;;;24.24;40.83;100454.41;1770176;80;25608;-68
2022/07/07 09:46:23;;;;;;;2.35;0.72;;;;;;;24.09;40.75;100453.46;1770130;80;27455;-68
2022/07/07 09:48:58;;;;;;;2.30;1.05;;;;;;;23.93;40.57;100460.19;1769797;81;27318;-68
2022/07/07 09:51:31;;;;;;;1.15;0.60;;;;;;;23.70;40.99;100450.92;1770070;81;25769;-65
2022/07/07 09:54:05;;;;;;;1.02;0.60;;;;;;;23.58;41.27;100445.20;1769332;80;25824;-69
2022/07/07 09:56:44;;;;;;;1.65;0.68;;;;;;;23.88;42.07;100444.02;1769914;80;25795;-68
2022/07/07 09:59:17;;;;;;;3.83;0.90;;;;;;;24.29;41.00;100431.71;1771149;80;27571;-67
2022/07/07 10:01:46;;;;;;;3.98;0.57;;;;;;;24.49;40.39;100443.09;1772201;80;25700;-67
2022/07/07 10:04:22;;;;;;;1.95;0.40;;;;;;;24.48;38.31;100453.35;1774044;80;25781;-67
2022/07/07 10:06:49;;;;;;;5.05;0.57;;;;;;;24.13;38.13;100442.61;1772868;80;25588;-67
2022/07/07 10:09:21;;;;;;;1.80;0.53;;;;;;;23.86;38.61;100443.63;1777359;80;26338;-69
2022/07/07 10:11:51;;;;;;;3.83;0.60;;;;;;;23.72;38.58;100438.89;1777764;80;27469;-69
2022/07/07 10:14:24;;;;;;;1.50;0.80;;;;;;;23.50;38.42;100442.23;1777247;80;25744;-69
2022/07/07 10:16:53;;;;;;;1.57;0.50;;;;;;;23.30;38.50;100436.30;1777367;80;25698;-67
2022/07/07 10:19:23;;;;;;;0.98;0.50;;;;;;;23.16;39.09;100439.83;1777643;80;33272;-68
2022/07/07 10:21:55;;;;;;;1.25;0.50;;;;;;;23.04;38.69;100440.18;1777567;80;25702;-66
2022/07/07 10:24:28;;;;;;;3.22;1.10;;;;;;;22.87;39.06;100443.09;1776170;80;28117;-67
2022/07/07 10:26:58;;;;;;;4.55;0.80;;;;;;;22.79;39.51;100445.62;1746506;82;25840;-66
2022/07/07 10:29:53;;;;;;;2.20;0.70;;;;;;;22.60;40.17;100449.48;1746645;82;25698;-66
2022/07/07 10:32:34;;;;;;;2.60;0.80;;;;;;;22.41;40.59;100440.91;1746336;82;26145;-67
2022/07/07 10:35:13;;;;;;;2.10;0.70;;;;;;;22.23;40.60;100451.22;1746643;82;25768;-66
2022/07/07 10:37:49;;;;;;;3.65;0.85;;;;;;;22.02;40.98;100436.75;1746584;82;27490;-66
2022/07/07 10:40:23;;;;;;;3.33;1.17;;;;;;;21.93;41.41;100441.78;1746334;82;25866;-66
2022/07/07 10:43:20;;;;;;;2.35;0.60;;;;;;;21.92;42.25;100436.87;1746661;81;25551;-67
2022/07/07 10:45:51;;;;;;;4.28;0.80;;;;;;;22.05;42.20;100443.44;1746292;81;27616;-69
2022/07/07 10:48:51;;;;;;;2.12;0.80;;;;;;;22.15;42.29;100439.95;1746549;81;25631;-67
2022/07/07 10:51:26;;;;;;;2.22;0.70;;;;;;;22.39;41.88;100438.56;1754928;80;27462;-68
2022/07/07 10:54:10;;;;;;;1.45;0.60;;;;;;;22.43;40.77;100427.56;1776813;80;25850;-67
2022/07/07 10:56:58;;;;;;;6.03;2.17;;;;;;;22.34;40.80;100430.08;1776808;80;25698;-69
2022/07/07 10:59:24;;;;;;;0.90;0.45;;;;;;;22.62;40.89;100428.61;1777557;80;32480;-67
2022/07/07 11:02:09;;;;;;;2.47;1.25;;;;;;;22.89;40.94;100424.96;1777163;80;25652;-67
2022/07/07 11:04:50;;;;;;;1.77;0.60;;;;;;;22.97;40.49;100431.87;1777343;80;27469;-67
2022/07/07 11:07:20;;;;;;;2.75;0.78;;;;;;;23.25;40.63;100416.78;1777301;80;25500;-67
2022/07/07 11:10:00;;;;;;;1.60;0.60;;;;;;;23.68;40.94;100415.42;1777006;80;25446;-66
2022/07/07 11:12:45;;;;;;;4.28;1.10;;;;;;;23.80;39.09;100416.98;1777077;80;25650;-67
2022/07/07 11:15:30;;;;;;;2.22;0.90;;;;;;;23.66;39.29;100410.09;1782906;80;25622;-67
2022/07/07 11:18:00;;;;;;;0.88;0.65;;;;;;;23.58;39.39;100417.59;1781405;80;27517;-67
2022/07/07 11:20:30;;;;;;;4.30;0.80;;;;;;;23.46;39.36;100411.88;1783164;80;26008;-69
2022/07/07 11:23:28;;;;;;;4.72;0.68;;;;;;;23.41;39.59;100416.41;1783014;80;25688;-68
2022/07/07 11:25:57;;;;;;;3.08;0.80;;;;;;;23.29;39.20;100409.87;1648352;87;25560;-69
2022/07/07 11:28:25;;;;;;;;;;;;;;;23.07;39.51;100415.95;1650838;87;25598;-69
2022/07/07 11:31:08;;;;;;;2.10;0.97;;;;;;;22.89;38.48;100415.31;1648503;87;27554;-68